createdAt,value
2018-03-19T00:00:42.023Z,32.20
2018-03-19T00:03:09.606Z,17.35
2018-03-19T00:05:37.199Z,20.05
2018-03-19T00:08:04.803Z,17.20
2018-03-19T00:10:33.158Z,21.52
2018-03-19T00:13:00.743Z,23.35
2018-03-19T00:15:29.096Z,16.65
2018-03-19T00:17:56.687Z,20.12
2018-03-19T00:20:25.044Z,16.73
2018-03-19T00:22:52.628Z,17.42
2018-03-19T00:25:20.978Z,24.25
2018-03-19T00:27:48.611Z,23.62
2018-03-19T00:30:16.179Z,16.12
2018-03-19T00:32:43.773Z,21.45
2018-03-19T00:35:11.379Z,24.37
2018-03-19T00:37:39.726Z,20.80
2018-03-19T00:40:07.323Z,19.30
2018-03-19T00:42:35.676Z,18.25
2018-03-19T00:45:03.309Z,22.08
2018-03-19T00:47:30.947Z,13.60
2018-03-19T00:49:58.552Z,19.98
2018-03-19T00:52:26.140Z,19.15
2018-03-19T00:54:53.733Z,15.70
2018-03-19T00:57:22.102Z,19.85
2018-03-19T00:59:49.691Z,18.58
2018-03-19T01:02:17.280Z,18.52
2018-03-19T01:04:44.871Z,19.55
2018-03-19T01:07:12.454Z,16.77
2018-03-19T01:09:40.045Z,15.90
2018-03-19T01:12:08.399Z,19.05
2018-03-19T01:14:35.983Z,19.30
2018-03-19T01:17:04.391Z,15.88
2018-03-19T01:19:31.974Z,14.57
2018-03-19T01:21:59.563Z,12.30
2018-03-19T01:24:27.147Z,19.02
2018-03-19T01:26:54.735Z,19.35
2018-03-19T01:29:22.319Z,16.02
2018-03-19T01:31:49.907Z,16.23
2018-03-19T01:34:17.495Z,13.15
2018-03-19T01:36:45.127Z,16.70
2018-03-19T01:39:12.719Z,12.45
2018-03-19T01:41:40.323Z,13.15
2018-03-19T01:44:08.689Z,16.48
2018-03-19T01:46:36.365Z,12.82
2018-03-19T01:49:04.714Z,15.60
2018-03-19T01:51:32.300Z,20.23
2018-03-19T01:54:00.711Z,14.23
2018-03-19T01:56:28.309Z,15.52
2018-03-19T01:58:55.947Z,14.38
2018-03-19T02:01:23.539Z,15.30
2018-03-19T02:03:51.131Z,18.23
2018-03-19T02:06:18.743Z,12.70
2018-03-19T02:08:46.339Z,17.48
2018-03-19T02:11:13.923Z,12.40
2018-03-19T02:13:41.507Z,21.02
2018-03-19T02:16:09.909Z,19.52
2018-03-19T02:18:38.258Z,22.70
2018-03-19T02:21:05.847Z,20.30
2018-03-19T02:23:34.204Z,14.87
2018-03-19T02:26:01.790Z,18.90
2018-03-19T02:28:30.144Z,16.00
2018-03-19T02:30:57.735Z,19.73
2018-03-19T02:33:26.091Z,15.80
2018-03-19T02:35:53.703Z,13.13
2018-03-19T02:38:21.296Z,15.55
2018-03-19T02:40:48.879Z,12.75
2018-03-19T02:43:16.471Z,14.13
2018-03-19T02:45:44.832Z,20.20
2018-03-19T02:48:12.466Z,14.70
2018-03-19T02:50:40.055Z,15.13
2018-03-19T02:53:07.647Z,17.25
2018-03-19T02:55:35.269Z,14.27
2018-03-19T02:58:02.876Z,17.65
2018-03-19T03:00:31.232Z,17.15
2018-03-19T03:02:58.822Z,17.58
2018-03-19T03:05:27.183Z,17.23
2018-03-19T03:07:54.787Z,14.07
2018-03-19T03:10:23.142Z,13.35
2018-03-19T03:12:50.751Z,14.10
2018-03-19T03:15:18.339Z,16.20
2018-03-19T03:17:45.922Z,13.43
2018-03-19T03:20:13.511Z,14.87
2018-03-19T03:22:41.102Z,20.02
2018-03-19T03:25:08.742Z,15.02
2018-03-19T03:27:37.104Z,22.33
2018-03-19T03:30:04.783Z,17.85
2018-03-19T03:32:32.382Z,19.87
2018-03-19T03:34:59.968Z,12.57
2018-03-19T03:37:27.606Z,14.30
2018-03-19T03:39:55.963Z,15.50
2018-03-19T03:42:23.550Z,17.05
2018-03-19T03:44:51.903Z,11.90
2018-03-19T03:47:19.494Z,21.83
2018-03-19T03:49:47.822Z,15.02
2018-03-19T03:52:15.376Z,15.85
2018-03-19T03:54:42.939Z,14.32
2018-03-19T03:57:10.494Z,13.73
2018-03-19T03:59:38.050Z,10.95
2018-03-19T04:02:05.615Z,11.45
2018-03-19T04:04:33.190Z,13.07
2018-03-19T04:07:00.742Z,15.13
2018-03-19T04:09:28.298Z,14.95
2018-03-19T04:11:56.622Z,13.30
2018-03-19T04:14:24.174Z,12.73
2018-03-19T04:16:51.726Z,10.55
2018-03-19T04:19:19.278Z,14.07
2018-03-19T04:21:46.874Z,15.45
2018-03-19T04:24:14.478Z,20.15
2018-03-19T04:26:42.010Z,10.95
2018-03-19T04:29:09.566Z,16.25
2018-03-19T04:31:37.177Z,18.42
2018-03-19T04:34:04.702Z,13.75
2018-03-19T04:36:32.258Z,12.95
2018-03-19T04:38:59.812Z,25.33
2018-03-19T04:41:27.376Z,21.27
2018-03-19T04:43:54.930Z,14.20
2018-03-19T04:46:22.483Z,19.90
2018-03-19T04:48:50.041Z,17.95
2018-03-19T04:51:18.392Z,16.50
2018-03-19T04:53:45.975Z,15.30
2018-03-19T04:56:14.325Z,20.17
2018-03-19T04:58:41.919Z,25.50
2018-03-19T05:01:10.320Z,21.42
2018-03-19T05:03:37.906Z,16.55
2018-03-19T05:06:05.491Z,18.05
2018-03-19T05:08:33.076Z,13.82
2018-03-19T05:11:00.676Z,17.37
2018-03-19T05:13:29.027Z,24.60
2018-03-19T05:15:56.611Z,22.83
2018-03-19T05:18:24.986Z,24.45
2018-03-19T05:20:52.572Z,37.35
2018-03-19T05:23:20.162Z,29.87
2018-03-19T05:25:47.750Z,24.37
2018-03-19T05:28:15.349Z,25.25
2018-03-19T05:30:43.699Z,20.88
2018-03-19T05:33:11.350Z,41.30
2018-03-19T05:35:38.971Z,38.92
2018-03-19T05:38:07.323Z,27.40
2018-03-19T05:40:34.908Z,30.15
2018-03-19T05:43:03.262Z,29.52
2018-03-19T05:45:30.846Z,21.83
2018-03-19T05:47:58.438Z,22.33
2018-03-19T05:50:26.027Z,23.48
2018-03-19T05:52:53.652Z,19.25
2018-03-19T05:55:22.003Z,21.33
2018-03-19T05:57:49.643Z,18.02
2018-03-19T06:00:17.299Z,19.10
2018-03-19T06:02:44.886Z,18.40
2018-03-19T06:05:12.471Z,19.90
2018-03-19T06:07:40.068Z,26.08
2018-03-19T06:10:08.427Z,17.58
2018-03-19T06:12:36.016Z,23.98
2018-03-19T06:15:04.379Z,18.87
2018-03-19T06:17:31.963Z,26.30
2018-03-19T06:19:59.551Z,32.90
2018-03-19T06:22:27.138Z,30.25
2018-03-19T06:24:54.723Z,33.88
2018-03-19T06:27:22.310Z,18.80
2018-03-19T06:29:50.664Z,27.25
2018-03-19T06:32:18.255Z,23.45
2018-03-19T06:34:45.839Z,22.90
2018-03-19T06:37:14.192Z,20.08
2018-03-19T06:39:41.782Z,22.92
2018-03-19T06:42:10.131Z,21.48
2018-03-19T06:44:37.735Z,21.30
2018-03-19T06:47:05.324Z,31.80
2018-03-19T06:49:32.907Z,24.50
2018-03-19T06:52:00.496Z,25.95
2018-03-19T06:54:28.078Z,22.30
2018-03-19T06:56:56.426Z,29.77
2018-03-19T06:59:24.020Z,25.70
2018-03-19T07:01:51.609Z,26.52
2018-03-19T07:04:19.203Z,31.10
2018-03-19T07:06:46.783Z,26.58
2018-03-19T07:09:14.372Z,20.17
2018-03-19T07:11:41.962Z,28.33
2018-03-19T07:14:09.562Z,26.92
2018-03-19T07:16:37.151Z,30.40
2018-03-19T07:19:04.734Z,27.55
2018-03-19T07:21:32.323Z,23.02
2018-03-19T07:23:59.912Z,29.33
2018-03-19T07:26:27.507Z,29.67
2018-03-19T07:28:55.119Z,24.25
2018-03-19T07:31:22.726Z,31.52
2018-03-19T07:33:50.322Z,30.92
2018-03-19T07:36:17.910Z,30.15
2018-03-19T07:38:46.267Z,24.73
2018-03-19T07:41:13.868Z,23.27
2018-03-19T07:43:41.459Z,29.75
2018-03-19T07:46:09.051Z,32.97
2018-03-19T07:48:36.698Z,21.87
2018-03-19T07:51:04.293Z,31.20
2018-03-19T07:53:31.887Z,31.25
2018-03-19T07:55:59.523Z,24.23
2018-03-19T07:58:27.114Z,22.00
2018-03-19T08:00:55.475Z,28.62
2018-03-19T08:03:23.063Z,27.62
2018-03-19T08:05:51.416Z,23.17
2018-03-19T08:08:19.043Z,23.52
2018-03-19T08:10:46.656Z,33.30
2018-03-19T08:13:15.015Z,32.50
2018-03-19T08:15:43.383Z,27.73
2018-03-19T08:18:10.975Z,22.92
2018-03-19T08:20:38.563Z,25.58
2018-03-19T08:23:06.919Z,21.73
2018-03-19T08:25:34.502Z,27.45
2018-03-19T08:28:02.860Z,27.23
2018-03-19T08:30:30.506Z,29.12
2018-03-19T08:32:58.102Z,23.90
2018-03-19T08:35:25.695Z,25.27
2018-03-19T08:37:53.283Z,18.27
2018-03-19T08:40:20.882Z,17.90
2018-03-19T08:42:48.484Z,26.60
2018-03-19T08:45:16.830Z,16.55
2018-03-19T08:47:44.418Z,12.63
2018-03-19T08:50:12.007Z,19.05
2018-03-19T08:52:39.594Z,21.02
2018-03-19T08:55:07.180Z,20.77
2018-03-19T08:57:34.782Z,20.90
2018-03-19T09:00:03.176Z,17.00
2018-03-19T09:02:31.531Z,19.87
2018-03-19T09:04:59.118Z,22.52
2018-03-19T09:07:26.715Z,19.23
2018-03-19T09:09:54.298Z,23.62
2018-03-19T09:12:21.891Z,22.80
2018-03-19T09:14:49.470Z,16.08
2018-03-19T09:17:17.118Z,17.23
2018-03-19T09:19:44.742Z,13.23
2018-03-19T09:22:12.356Z,22.17
2018-03-19T09:24:39.938Z,14.98
2018-03-19T09:27:07.536Z,15.57
2018-03-19T09:29:35.136Z,15.48
2018-03-19T09:32:02.774Z,19.92
2018-03-19T09:34:30.358Z,15.02
2018-03-19T09:36:57.955Z,15.48
2018-03-19T09:39:26.314Z,24.52
2018-03-19T09:41:53.928Z,23.50
2018-03-19T09:44:21.528Z,15.15
2018-03-19T09:46:49.127Z,14.32
2018-03-19T09:49:16.731Z,17.62
2018-03-19T09:51:44.314Z,19.12
2018-03-19T09:54:11.913Z,19.77
2018-03-19T09:56:39.508Z,16.40
2018-03-19T09:59:07.859Z,24.48
2018-03-19T10:01:35.454Z,19.05
2018-03-19T10:04:03.848Z,19.05
2018-03-19T10:06:31.562Z,19.60
2018-03-19T10:08:59.122Z,18.30
2018-03-19T10:11:26.730Z,24.37
2018-03-19T10:13:54.360Z,21.90
2018-03-19T10:16:21.954Z,19.83
2018-03-19T10:18:50.312Z,23.58
2018-03-19T10:21:17.914Z,16.55
2018-03-19T10:23:45.504Z,18.15
2018-03-19T10:26:13.087Z,17.27
2018-03-19T10:28:40.796Z,22.65
2018-03-19T10:31:09.196Z,24.40
2018-03-19T10:33:36.787Z,17.42
2018-03-19T10:36:04.424Z,22.85
2018-03-19T10:38:32.855Z,24.37
2018-03-19T10:41:00.439Z,16.73
2018-03-19T10:43:28.035Z,18.35
2018-03-19T10:45:56.394Z,16.58
2018-03-19T10:48:24.048Z,24.75
2018-03-19T10:50:51.635Z,21.02
2018-03-19T10:53:19.982Z,18.77
2018-03-19T10:55:47.571Z,16.98
2018-03-19T10:58:15.159Z,33.67
2018-03-19T11:00:42.751Z,15.60
2018-03-19T11:03:10.354Z,18.80
2018-03-19T11:05:43.598Z,18.87
2018-03-19T11:08:11.207Z,17.23
2018-03-19T11:10:38.789Z,19.52
2018-03-19T11:13:06.379Z,17.58
2018-03-19T11:15:33.974Z,18.23
2018-03-19T11:18:01.561Z,22.27
2018-03-19T11:20:29.180Z,24.05
2018-03-19T11:22:56.778Z,17.42
2018-03-19T11:25:24.403Z,17.67
2018-03-19T11:27:52.764Z,18.17
2018-03-19T11:30:20.394Z,14.77
2018-03-19T11:32:47.978Z,14.23
2018-03-19T11:35:15.563Z,12.27
2018-03-19T11:37:43.959Z,12.82
2018-03-19T11:40:12.313Z,20.02
2018-03-19T11:42:39.895Z,13.18
2018-03-19T11:45:08.251Z,14.27
2018-03-19T11:47:35.834Z,13.07
2018-03-19T11:50:03.438Z,11.90
2018-03-19T11:52:31.048Z,12.63
2018-03-19T11:54:58.635Z,15.13
2018-03-19T11:57:26.234Z,14.57
2018-03-19T11:59:53.818Z,14.32
2018-03-19T12:02:21.501Z,11.65
2018-03-19T12:04:49.141Z,13.55
2018-03-19T12:07:16.715Z,12.00
2018-03-19T12:09:44.380Z,16.17
2018-03-19T12:12:11.979Z,26.67
2018-03-19T12:14:40.339Z,10.93
2018-03-19T12:17:07.922Z,11.32
2018-03-19T12:19:35.539Z,11.95
2018-03-19T12:22:03.132Z,12.70
2018-03-19T12:24:30.719Z,15.93
2018-03-19T12:26:58.408Z,11.25
2018-03-19T12:29:26.766Z,13.98
2018-03-19T12:31:54.352Z,14.75
2018-03-19T12:34:22.742Z,12.55
2018-03-19T12:36:52.935Z,22.95
2018-03-19T12:39:20.527Z,49.60
2018-03-19T12:41:48.236Z,14.23
2018-03-19T12:44:16.427Z,10.48
2018-03-19T12:46:44.050Z,15.20
2018-03-19T12:49:12.395Z,15.38
2018-03-19T12:51:39.979Z,21.90
2018-03-19T12:54:07.774Z,14.00
2018-03-19T12:56:35.366Z,18.58
2018-03-19T12:59:02.986Z,16.12
2018-03-19T13:01:31.364Z,19.65
2018-03-19T13:03:59.735Z,16.40
2018-03-19T13:06:27.324Z,20.60
2018-03-19T13:08:56.939Z,18.83
2018-03-19T13:11:24.508Z,16.87
2018-03-19T13:13:52.104Z,15.88
2018-03-19T13:16:19.688Z,16.20
2018-03-19T13:18:47.269Z,16.40
2018-03-19T13:21:15.056Z,17.42
2018-03-19T13:23:43.423Z,16.05
2018-03-19T13:26:11.011Z,16.60
2018-03-19T13:28:39.434Z,15.60
2018-03-19T13:31:07.157Z,18.17
2018-03-19T13:33:34.758Z,19.25
2018-03-19T13:36:02.455Z,19.23
2018-03-19T13:38:30.039Z,15.52
2018-03-19T13:40:57.618Z,18.60
2018-03-19T13:43:25.219Z,19.48
2018-03-19T13:45:52.843Z,18.87
2018-03-19T13:48:21.195Z,15.95
2018-03-19T13:50:48.916Z,21.70
2018-03-19T13:53:16.654Z,16.80
2018-03-19T13:55:44.243Z,17.08
2018-03-19T13:58:11.839Z,23.77
2018-03-19T14:00:49.594Z,21.45
2018-03-19T14:03:17.949Z,18.42
2018-03-19T14:05:45.539Z,19.80
2018-03-19T14:08:13.887Z,21.42
2018-03-19T14:10:41.638Z,15.25
2018-03-19T14:13:09.222Z,23.35
2018-03-19T14:15:36.803Z,19.12
2018-03-19T14:18:04.390Z,16.40
2018-03-19T14:20:32.169Z,19.25
2018-03-19T14:22:59.752Z,17.37
2018-03-19T14:25:27.355Z,23.48
2018-03-19T14:27:54.984Z,16.70
2018-03-19T14:30:22.734Z,16.40
2018-03-19T14:32:50.320Z,17.92
2018-03-19T14:35:17.910Z,15.57
2018-03-19T14:37:45.526Z,20.80
2018-03-19T14:40:13.121Z,17.37
2018-03-19T14:42:42.165Z,22.13
2018-03-19T14:45:09.754Z,16.95
2018-03-19T14:47:37.395Z,18.98
2018-03-19T14:50:05.013Z,18.37
2018-03-19T14:52:32.602Z,17.75
2018-03-19T14:55:00.190Z,16.60
2018-03-19T14:57:27.790Z,17.40
2018-03-19T14:59:55.385Z,14.30
2018-03-19T15:02:22.975Z,15.73
2018-03-19T15:04:50.574Z,16.60
2018-03-19T15:07:19.007Z,18.98
2018-03-19T15:09:46.586Z,17.27
2018-03-19T15:12:14.171Z,17.37
2018-03-19T15:14:42.519Z,19.48
2018-03-19T15:17:10.147Z,24.42
2018-03-19T15:19:37.744Z,20.77
2018-03-19T15:22:05.412Z,17.23
2018-03-19T15:24:32.998Z,18.75
2018-03-19T15:27:00.578Z,15.80
2018-03-19T15:29:28.971Z,17.50
2018-03-19T15:31:57.327Z,17.23
2018-03-19T15:34:24.919Z,19.05
2018-03-19T15:36:53.294Z,20.10
2018-03-19T15:39:21.646Z,18.40
2018-03-19T15:41:49.239Z,13.00
2018-03-19T15:44:17.595Z,16.00
2018-03-19T15:46:45.178Z,21.95
2018-03-19T15:49:12.767Z,19.05
2018-03-19T15:51:41.363Z,18.10
2018-03-19T15:54:08.950Z,15.15
2018-03-19T15:56:36.535Z,20.35
2018-03-19T15:59:04.165Z,23.20
2018-03-19T16:01:31.750Z,16.90
2018-03-19T16:03:59.343Z,16.30
2018-03-19T16:06:26.927Z,16.50
2018-03-19T16:08:55.273Z,23.38
2018-03-19T16:11:22.858Z,13.57
2018-03-19T16:13:50.446Z,14.85
2018-03-19T16:16:18.868Z,19.30
2018-03-19T16:18:46.508Z,17.80
2018-03-19T16:21:14.112Z,19.27
2018-03-19T16:23:41.726Z,20.30
2018-03-19T16:26:10.074Z,15.88
2018-03-19T16:28:37.659Z,15.70
2018-03-19T16:31:05.247Z,15.32
2018-03-19T16:33:33.604Z,18.40
2018-03-19T16:36:01.200Z,18.00
2018-03-19T16:38:28.815Z,14.68
2018-03-19T16:40:56.411Z,20.52
2018-03-19T16:43:24.009Z,14.32
2018-03-19T16:45:51.698Z,16.02
2018-03-19T16:48:20.050Z,23.10
2018-03-19T16:50:47.722Z,16.65
2018-03-19T16:53:15.318Z,19.45
2018-03-19T16:55:43.115Z,23.08
2018-03-19T16:58:10.720Z,16.20
2018-03-19T17:00:38.757Z,21.20
2018-03-19T17:03:10.406Z,22.95
2018-03-19T17:05:38.211Z,13.90
2018-03-19T17:08:05.926Z,19.62
2018-03-19T17:10:33.510Z,17.80
2018-03-19T17:13:01.111Z,15.70
2018-03-19T17:15:28.730Z,15.52
2018-03-19T17:17:56.394Z,20.80
2018-03-19T17:20:23.978Z,17.10
2018-03-19T17:22:51.591Z,18.80
2018-03-19T17:25:19.431Z,22.15
2018-03-19T17:27:47.779Z,17.62
2018-03-19T17:30:15.359Z,19.52
2018-03-19T17:32:43.066Z,28.12
2018-03-19T17:35:10.679Z,21.52
2018-03-19T17:37:38.315Z,20.23
2018-03-19T17:40:05.907Z,19.20
2018-03-19T17:42:33.491Z,22.30
2018-03-19T17:45:01.079Z,20.52
2018-03-19T17:47:28.754Z,20.42
2018-03-19T17:49:56.281Z,18.92
2018-03-19T17:52:23.875Z,17.90
2018-03-19T17:54:52.351Z,13.98
2018-03-19T17:57:20.719Z,26.92
2018-03-19T17:59:48.313Z,40.25
2018-03-19T18:02:16.295Z,35.47
2018-03-19T18:04:43.883Z,29.92
2018-03-19T18:07:11.508Z,38.00
2018-03-19T18:09:39.098Z,25.85
2018-03-19T18:12:06.731Z,31.05
2018-03-19T18:14:35.263Z,30.75
2018-03-19T18:17:02.910Z,33.75
2018-03-19T18:19:30.500Z,25.05
2018-03-19T18:21:58.106Z,20.92
2018-03-19T18:24:26.459Z,22.87
2018-03-19T18:26:54.051Z,24.77
2018-03-19T18:29:22.402Z,18.42
2018-03-19T18:31:49.987Z,17.80
2018-03-19T18:34:17.607Z,39.05
2018-03-19T18:36:45.200Z,35.78
2018-03-19T18:39:12.802Z,30.48
2018-03-19T18:41:41.163Z,20.65
2018-03-19T18:44:08.803Z,18.95
2018-03-19T18:46:37.154Z,18.73
2018-03-19T18:49:04.751Z,24.05
2018-03-19T18:51:37.611Z,19.10
2018-03-19T18:54:05.300Z,18.40
2018-03-19T18:56:35.549Z,18.67
2018-03-19T18:59:03.140Z,26.73
2018-03-19T19:01:31.630Z,25.33
2018-03-19T19:04:00.275Z,47.67
2018-03-19T19:06:27.918Z,50.12
2018-03-19T19:08:55.568Z,50.20
2018-03-19T19:11:23.223Z,52.90
2018-03-19T19:13:50.828Z,44.08
2018-03-19T19:16:18.466Z,55.50
2018-03-19T19:18:46.056Z,60.30
2018-03-19T19:21:16.674Z,90.38
2018-03-19T19:23:44.266Z,72.97
2018-03-19T19:26:11.854Z,85.93
2018-03-19T19:28:39.462Z,71.70
2018-03-19T19:31:07.058Z,45.20
2018-03-19T19:33:34.651Z,48.40
2018-03-19T19:36:02.239Z,34.72
2018-03-19T19:38:30.591Z,37.17
2018-03-19T19:40:58.184Z,34.50
2018-03-19T19:43:25.801Z,36.92
2018-03-19T19:45:53.388Z,57.50
2018-03-19T19:48:20.994Z,45.20
2018-03-19T19:50:48.598Z,42.35
2018-03-19T19:53:16.212Z,33.50
2018-03-19T19:55:44.564Z,33.10
2018-03-19T19:58:13.030Z,33.65
2018-03-19T20:00:40.678Z,38.78
2018-03-19T20:03:08.266Z,44.17
2018-03-19T20:05:35.854Z,90.57
2018-03-19T20:08:03.536Z,69.55
2018-03-19T20:10:31.923Z,64.50
2018-03-19T20:13:00.300Z,33.35
2018-03-19T20:15:28.670Z,29.77
2018-03-19T20:17:56.260Z,28.67
2018-03-19T20:20:23.952Z,35.17
2018-03-19T20:22:51.584Z,68.75
2018-03-19T20:25:20.013Z,94.72
2018-03-19T20:27:47.598Z,80.43
2018-03-19T20:30:15.202Z,76.37
2018-03-19T20:32:42.787Z,62.47
2018-03-19T20:35:10.367Z,64.22
2018-03-19T20:37:37.969Z,43.70
2018-03-19T20:40:05.602Z,119.10
2018-03-19T20:42:33.192Z,58.97
2018-03-19T20:45:00.784Z,69.10
2018-03-19T20:47:29.131Z,40.53
2018-03-19T20:49:57.489Z,84.78
2018-03-19T20:52:25.083Z,51.42
2018-03-19T20:54:52.666Z,36.25
2018-03-19T20:57:20.254Z,59.33
2018-03-19T20:59:47.843Z,46.80
2018-03-19T21:02:15.464Z,38.33
2018-03-19T21:04:43.826Z,74.22
2018-03-19T21:07:11.415Z,69.28
2018-03-19T21:09:39.788Z,96.32
2018-03-19T21:12:07.385Z,73.87
2018-03-19T21:14:34.982Z,67.93
2018-03-19T21:17:02.566Z,65.30
2018-03-19T21:19:30.151Z,54.88
2018-03-19T21:21:57.739Z,53.58
2018-03-19T21:24:25.351Z,43.10
2018-03-19T21:26:52.940Z,36.75
2018-03-19T21:29:20.526Z,51.95
2018-03-19T21:31:48.873Z,30.85
2018-03-19T21:34:16.457Z,33.25
2018-03-19T21:36:44.831Z,39.78
2018-03-19T21:39:12.431Z,57.30
2018-03-19T21:41:40.031Z,35.42
2018-03-19T21:44:07.614Z,25.98
2018-03-19T21:46:35.203Z,31.42
2018-03-19T21:49:03.567Z,31.00
2018-03-19T21:51:31.150Z,31.65
2018-03-19T21:53:58.758Z,25.08
2018-03-19T21:56:26.346Z,34.33
2018-03-19T21:58:54.703Z,22.15
2018-03-19T22:01:22.559Z,32.03
2018-03-19T22:03:50.179Z,30.30
2018-03-19T22:06:17.820Z,28.05
2018-03-19T22:08:45.410Z,25.05
2018-03-19T22:11:12.999Z,41.88
2018-03-19T22:13:41.349Z,26.62
2018-03-19T22:16:08.939Z,26.40
2018-03-19T22:18:37.286Z,34.53
2018-03-19T22:21:04.875Z,43.92
2018-03-19T22:23:32.493Z,39.40
2018-03-19T22:26:00.129Z,50.33
2018-03-19T22:28:28.538Z,32.42
2018-03-19T22:30:56.123Z,45.47
2018-03-19T22:33:24.483Z,39.88
2018-03-19T22:35:52.071Z,67.95
2018-03-19T22:38:19.657Z,41.72
2018-03-19T22:40:47.248Z,44.67
2018-03-19T22:43:15.604Z,36.15
2018-03-19T22:45:43.195Z,94.62
2018-03-19T22:48:11.558Z,45.83
2018-03-19T22:50:39.143Z,42.95
2018-03-19T22:53:07.497Z,47.72
2018-03-19T22:55:35.082Z,68.60
2018-03-19T22:58:03.491Z,71.87
2018-03-19T23:00:31.106Z,40.20
2018-03-19T23:02:58.742Z,82.62
2018-03-19T23:05:26.331Z,47.25
2018-03-19T23:07:53.919Z,55.33
2018-03-19T23:10:21.502Z,50.25
2018-03-19T23:12:49.860Z,79.28
2018-03-19T23:15:17.450Z,40.42
2018-03-19T23:17:45.806Z,75.68
2018-03-19T23:20:13.398Z,80.22
2018-03-19T23:22:41.750Z,75.30
2018-03-19T23:25:09.335Z,81.57
2018-03-19T23:27:37.700Z,38.28
2018-03-19T23:30:05.310Z,81.50
2018-03-19T23:32:32.909Z,46.20
2018-03-19T23:35:00.498Z,73.50
2018-03-19T23:37:28.083Z,55.97
2018-03-19T23:39:56.477Z,68.93
2018-03-19T23:42:24.082Z,37.63
2018-03-19T23:44:51.719Z,41.65
2018-03-19T23:47:19.301Z,49.58
2018-03-19T23:49:46.914Z,55.90
2018-03-19T23:52:15.276Z,54.67
2018-03-19T23:54:42.868Z,84.43
2018-03-19T23:57:11.228Z,31.50
2018-03-19T23:59:38.819Z,31.08
